METAR Data
IDs: Format: Raw Decoded Include TAF

Data at: 1728 UTC 16 Oct 2021

KCQB 161215Z AUTO 32003KT 10SM CLR 06/04 A3036 RMK AO2 T00550037